Time;durP1;ratioP1;P1;durP2;ratioP2;P2;SDS_P1;SDS_P2;PMS_P1;PMS_P2;Temp;Humidity;BMP_temperature;BMP_pressure;BME280_temperature;BME280_humidity;BME280_pressure;Samples;Min_cycle;Max_cycle;Signal;HPM_P1;HPM_P2
2023/10/05 00:01:10;;;;;;;18.05;12.05;;;;;;;12.98;100.00;93868.31;5069712;28;20081;-74
2023/10/05 00:03:38;;;;;;;16.67;11.10;;;;;;;13.02;100.00;93879.81;5068909;28;20059;-74
2023/10/05 00:06:13;;;;;;;16.48;11.30;;;;;;;13.03;100.00;93878.81;5067580;28;20048;-74
2023/10/05 00:08:43;;;;;;;18.80;11.80;;;;;;;12.97;100.00;93877.88;5067881;28;20044;-73
2023/10/05 00:11:11;;;;;;;18.67;12.25;;;;;;;12.69;100.00;93841.13;5068591;28;20051;-73
2023/10/05 00:13:39;;;;;;;18.27;12.20;;;;;;;12.92;100.00;93881.06;5066731;28;20044;-73
2023/10/05 00:16:06;;;;;;;20.48;12.63;;;;;;;12.92;100.00;93886.22;5066471;28;20058;-74
2023/10/05 00:18:33;;;;;;;19.00;12.07;;;;;;;12.91;100.00;93883.84;5069149;28;20051;-74
2023/10/05 00:21:00;;;;;;;21.85;12.32;;;;;;;12.67;100.00;93852.63;5069444;28;20703;-74
2023/10/05 00:23:29;;;;;;;18.60;12.48;;;;;;;12.87;100.00;93888.63;5062505;28;20508;-74
2023/10/05 00:25:56;;;;;;;18.27;12.55;;;;;;;12.81;100.00;93874.78;5069175;28;20134;-74
2023/10/05 00:28:26;;;;;;;21.33;13.75;;;;;;;12.77;100.00;93871.03;5069297;28;20045;-74
2023/10/05 00:30:55;;;;;;;19.95;13.35;;;;;;;12.73;100.00;93856.97;5068797;28;20542;-74
2023/10/05 00:33:22;;;;;;;20.63;12.77;;;;;;;12.85;100.00;93877.72;5066061;28;20045;-74
2023/10/05 00:35:49;;;;;;;22.55;14.15;;;;;;;12.80;100.00;93873.19;5065812;28;20041;-74
2023/10/05 00:38:16;;;;;;;23.00;13.82;;;;;;;12.77;100.00;93878.75;5067496;28;20068;-74
2023/10/05 00:40:54;;;;;;;22.35;13.82;;;;;;;12.76;100.00;93877.19;5065247;28;20048;-74
2023/10/05 00:43:24;;;;;;;22.92;14.27;;;;;;;12.78;100.00;93882.13;5069149;28;20152;-74
2023/10/05 00:45:51;;;;;;;23.30;14.55;;;;;;;12.76;100.00;93884.91;5064958;28;20052;-74
2023/10/05 00:48:29;;;;;;;22.52;15.07;;;;;;;12.79;100.00;93875.97;5063193;28;20040;-74
2023/10/05 00:50:59;;;;;;;28.45;15.57;;;;;;;12.72;100.00;93868.28;5067590;28;20044;-74
2023/10/05 00:53:28;;;;;;;23.05;13.63;;;;;;;12.75;100.00;93878.19;5069076;28;20045;-73
2023/10/05 00:56:07;;;;;;;27.70;14.98;;;;;;;12.58;100.00;93851.31;5066627;28;20052;-73
2023/10/05 00:58:42;;;;;;;24.27;14.40;;;;;;;12.69;100.00;93864.31;5067206;28;20554;-73
2023/10/05 01:01:15;;;;;;;23.80;14.95;;;;;;;12.69;100.00;93871.28;5063876;28;20044;-73
2023/10/05 01:04:11;;;;;;;24.92;15.77;;;;;;;12.41;100.00;93831.94;5066658;28;20117;-73
2023/10/05 01:06:40;;;;;;;26.05;15.80;;;;;;;12.65;100.00;93870.88;5063408;28;20497;-74
2023/10/05 01:09:12;;;;;;;29.60;16.92;;;;;;;12.62;100.00;93860.19;5067318;28;20442;-74
2023/10/05 01:11:43;;;;;;;28.88;17.17;;;;;;;12.66;100.00;93864.75;5066534;28;20051;-74
2023/10/05 01:14:10;;;;;;;26.90;16.83;;;;;;;12.69;100.00;93863.53;5058756;28;20053;-74
2023/10/05 01:16:37;;;;;;;26.60;15.90;;;;;;;12.65;100.00;93864.94;5066789;28;20392;-74
2023/10/05 01:19:07;;;;;;;26.95;17.25;;;;;;;12.63;100.00;93859.22;5068231;28;20484;-75
2023/10/05 01:21:35;;;;;;;30.85;17.25;;;;;;;12.62;100.00;93858.41;5061168;28;20049;-75
2023/10/05 01:24:05;;;;;;;35.13;17.83;;;;;;;12.61;100.00;93850.88;5068164;28;20139;-75
2023/10/05 01:26:34;;;;;;;33.00;17.80;;;;;;;12.61;100.00;93856.03;5067997;28;20193;-75
2023/10/05 01:29:01;;;;;;;30.33;17.20;;;;;;;12.59;100.00;93858.03;5067790;28;20496;-75
2023/10/05 01:31:29;;;;;;;30.85;17.17;;;;;;;12.53;100.00;93857.88;5063175;28;20052;-75
2023/10/05 01:33:58;;;;;;;33.17;18.58;;;;;;;12.54;100.00;93854.28;5066188;28;20060;-74
2023/10/05 01:36:25;;;;;;;30.05;18.02;;;;;;;12.54;100.00;93850.91;5068016;28;20052;-74
2023/10/05 01:38:54;;;;;;;27.67;16.83;;;;;;;12.48;100.00;93859.47;5066817;28;20060;-74
2023/10/05 01:41:22;;;;;;;30.33;16.95;;;;;;;12.49;100.00;93861.06;5066437;28;20447;-74
2023/10/05 01:43:51;;;;;;;25.02;16.00;;;;;;;12.45;100.00;93860.66;5062091;28;20056;-74
2023/10/05 01:46:18;;;;;;;29.67;16.55;;;;;;;12.41;100.00;93852.56;5058321;28;20040;-74
2023/10/05 01:48:45;;;;;;;29.15;16.38;;;;;;;12.39;100.00;93856.31;5060201;28;20057;-74
2023/10/05 01:51:14;;;;;;;24.05;15.18;;;;;;;12.37;100.00;93859.09;5063904;28;20171;-74
2023/10/05 01:53:43;;;;;;;25.98;16.15;;;;;;;12.33;100.00;93860.53;5067833;28;20416;-74
2023/10/05 01:56:17;;;;;;;27.63;16.67;;;;;;;12.31;100.00;93854.75;5062969;28;20053;-74
2023/10/05 01:58:50;;;;;;;27.05;16.27;;;;;;;12.28;100.00;93853.38;5065013;28;20056;-74
2023/10/05 02:01:18;;;;;;;27.55;15.95;;;;;;;12.24;100.00;93854.81;5067389;28;20048;-74
2023/10/05 02:03:47;;;;;;;27.60;15.02;;;;;;;12.24;100.00;93862.53;5066911;28;20055;-75
2023/10/05 02:06:15;;;;;;;25.40;14.35;;;;;;;12.17;100.00;93856.59;5061086;28;20086;-75
2023/10/05 02:08:42;;;;;;;28.55;14.10;;;;;;;12.18;100.00;93868.50;5066366;28;20928;-74
2023/10/05 02:11:09;;;;;;;26.45;15.57;;;;;;;11.94;100.00;93828.72;5061043;28;20044;-75
2023/10/05 02:13:37;;;;;;;26.27;15.27;;;;;;;12.16;100.00;93860.19;5066807;28;20051;-75
2023/10/05 02:16:14;;;;;;;25.63;16.23;;;;;;;12.18;100.00;93858.22;5067201;28;20481;-75
2023/10/05 02:18:41;;;;;;;26.48;15.38;;;;;;;12.16;100.00;93852.44;5060239;28;20045;-74
2023/10/05 02:21:17;;;;;;;28.63;15.82;;;;;;;12.21;100.00;93855.22;5066935;28;20056;-74
2023/10/05 02:23:45;;;;;;;26.83;15.27;;;;;;;12.26;100.00;93855.38;5066936;28;20044;-74
2023/10/05 02:26:23;;;;;;;29.08;16.13;;;;;;;12.28;100.00;93860.34;5063550;28;20055;-74
2023/10/05 02:28:51;;;;;;;25.80;15.88;;;;;;;12.25;100.00;93860.75;5064466;28;20052;-74
2023/10/05 02:31:20;;;;;;;27.55;15.30;;;;;;;12.29;100.00;93873.03;5058823;28;20072;-73
2023/10/05 02:33:47;;;;;;;30.13;16.15;;;;;;;12.22;100.00;93868.88;5057231;28;20103;-74
2023/10/05 02:36:20;;;;;;;28.30;15.80;;;;;;;12.14;100.00;93857.03;5066037;28;20049;-74
2023/10/05 02:38:53;;;;;;;27.38;16.40;;;;;;;12.21;100.00;93862.16;5065909;28;20094;-74
2023/10/05 02:41:24;;;;;;;32.97;17.30;;;;;;;12.22;100.00;93867.09;5064178;28;20044;-74
2023/10/05 02:43:53;;;;;;;32.22;16.83;;;;;;;12.24;100.00;93869.47;5065374;28;20056;-74
2023/10/05 02:46:24;;;;;;;26.15;15.43;;;;;;;12.25;100.00;93866.69;5062582;28;20048;-74
2023/10/05 02:48:51;;;;;;;27.25;15.85;;;;;;;12.16;100.00;93860.97;5065396;28;20178;-74
2023/10/05 02:51:18;;;;;;;25.90;15.90;;;;;;;12.18;100.00;93872.84;5063781;28;20059;-74
2023/10/05 02:53:46;;;;;;;32.15;16.88;;;;;;;12.14;100.00;93875.03;5066383;28;20044;-74
2023/10/05 02:56:27;;;;;;;30.77;17.05;;;;;;;12.17;100.00;93869.47;5066035;28;20094;-74
2023/10/05 02:59:00;;;;;;;30.67;17.05;;;;;;;12.17;100.00;93874.63;5060040;28;20041;-74
2023/10/05 03:01:32;;;;;;;30.67;16.50;;;;;;;12.12;100.00;93867.53;5065622;28;20075;-74
2023/10/05 03:04:00;;;;;;;27.23;15.98;;;;;;;12.04;100.00;93860.03;5064358;28;20053;-74
2023/10/05 03:06:30;;;;;;;27.60;17.02;;;;;;;12.10;100.00;93868.72;5066224;28;20050;-74
2023/10/05 03:09:06;;;;;;;26.63;17.15;;;;;;;12.12;100.00;93871.88;5064332;28;20092;-74
2023/10/05 03:11:37;;;;;;;26.92;17.13;;;;;;;12.06;100.00;93857.22;5065567;28;20071;-74
2023/10/05 03:14:04;;;;;;;31.45;17.00;;;;;;;12.10;100.00;93869.50;5061367;28;20080;-74
2023/10/05 03:16:42;;;;;;;28.65;16.63;;;;;;;12.04;100.00;93860.03;5065708;28;20063;-74
2023/10/05 03:19:12;;;;;;;28.35;16.58;;;;;;;12.12;100.00;93872.66;5067108;28;20084;-74
2023/10/05 03:21:40;;;;;;;26.60;16.23;;;;;;;12.09;100.00;93867.91;5068891;28;20161;-73
2023/10/05 03:24:13;;;;;;;28.90;16.33;;;;;;;12.10;100.00;93866.94;5068361;28;20493;-73
2023/10/05 03:26:40;;;;;;;26.17;16.50;;;;;;;12.07;100.00;93871.72;5070089;28;20099;-74
2023/10/05 03:29:07;;;;;;;27.77;16.52;;;;;;;12.09;100.00;93869.72;5062944;28;20141;-74
2023/10/05 03:31:38;;;;;;;30.58;17.23;;;;;;;12.06;100.00;93863.19;5068418;28;20044;-75
2023/10/05 03:34:07;;;;;;;26.98;17.42;;;;;;;11.90;100.00;93844.56;5067913;28;20059;-75
2023/10/05 03:36:35;;;;;;;31.20;17.75;;;;;;;12.01;100.00;93868.91;5064495;28;20040;-74
2023/10/05 03:39:06;;;;;;;28.13;16.60;;;;;;;11.99;100.00;93867.53;5069489;28;20048;-74
2023/10/05 03:41:34;;;;;;;29.63;17.75;;;;;;;12.02;100.00;93869.69;5067628;28;20131;-73
2023/10/05 03:44:03;;;;;;;29.40;17.55;;;;;;;11.99;100.00;93876.03;5065910;28;20053;-74
2023/10/05 03:46:30;;;;;;;27.67;17.40;;;;;;;11.93;100.00;93874.25;5069842;28;20076;-74
2023/10/05 03:49:06;;;;;;;27.05;16.50;;;;;;;11.92;100.00;93874.47;5069384;28;20044;-74
2023/10/05 03:51:37;;;;;;;30.05;18.20;;;;;;;11.96;100.00;93871.31;5069018;28;20045;-74
2023/10/05 03:54:04;;;;;;;29.05;17.45;;;;;;;11.84;100.00;93878.03;5063406;28;20049;-74
2023/10/05 03:56:31;;;;;;;29.70;17.55;;;;;;;11.85;100.00;93877.06;5069451;28;20044;-74
2023/10/05 03:59:00;;;;;;;24.15;15.75;;;;;;;11.83;100.00;93879.03;5069797;28;20134;-75
2023/10/05 04:01:27;;;;;;;23.75;15.52;;;;;;;11.79;100.00;93865.78;5064138;28;20571;-74
2023/10/05 04:03:55;;;;;;;26.25;14.48;;;;;;;11.81;100.00;93886.19;5067166;28;20059;-74
2023/10/05 04:06:26;;;;;;;23.90;14.38;;;;;;;11.66;100.00;93869.16;5069608;28;20127;-74
2023/10/05 04:08:57;;;;;;;21.15;13.52;;;;;;;11.47;100.00;93842.44;5066005;28;20148;-74
2023/10/05 04:11:26;;;;;;;21.75;13.93;;;;;;;11.74;100.00;93888.75;5066186;28;20048;-74
2023/10/05 04:13:54;;;;;;;21.75;14.27;;;;;;;11.74;100.00;93889.56;5066341;28;20044;-74
2023/10/05 04:16:28;;;;;;;23.58;13.80;;;;;;;11.73;100.00;93898.28;5063363;28;20052;-75
2023/10/05 04:18:58;;;;;;;19.38;12.88;;;;;;;11.71;100.00;93897.66;5067836;28;20564;-75
2023/10/05 04:21:27;;;;;;;20.23;12.88;;;;;;;11.47;100.00;93852.75;5066410;28;20055;-74
2023/10/05 04:23:56;;;;;;;22.20;13.32;;;;;;;11.59;100.00;93871.75;5068531;28;20044;-74
2023/10/05 04:26:27;;;;;;;20.60;13.52;;;;;;;11.71;100.00;93894.31;5064035;28;20106;-74
2023/10/05 04:28:54;;;;;;;19.92;13.35;;;;;;;11.66;100.00;93888.97;5064086;28;20048;-74
2023/10/05 04:31:26;;;;;;;22.20;14.15;;;;;;;11.63;100.00;93892.72;5060776;28;20385;-74
2023/10/05 04:33:54;;;;;;;23.08;14.55;;;;;;;11.59;100.00;93888.97;5068302;28;20049;-74
2023/10/05 04:36:22;;;;;;;27.33;14.68;;;;;;;11.55;100.00;93888.56;5061776;28;20127;-74
2023/10/05 04:38:52;;;;;;;27.60;14.75;;;;;;;11.54;100.00;93897.28;5067565;28;20067;-74
2023/10/05 04:41:20;;;;;;;26.45;14.27;;;;;;;11.49;100.00;93895.28;5067766;28;20052;-75
2023/10/05 04:43:49;;;;;;;22.25;14.30;;;;;;;11.45;100.00;93890.75;5067874;28;20056;-75
2023/10/05 04:46:18;;;;;;;26.15;14.65;;;;;;;11.43;100.00;93900.44;5065976;28;20049;-75
2023/10/05 04:48:55;;;;;;;22.30;13.77;;;;;;;11.40;100.00;93899.06;5068058;28;20121;-75
2023/10/05 04:51:23;;;;;;;22.58;14.70;;;;;;;11.41;100.00;93902.41;5068477;28;20059;-75
2023/10/05 04:53:54;;;;;;;24.63;14.75;;;;;;;11.43;100.00;93903.03;5059668;28;20564;-75
2023/10/05 04:56:34;;;;;;;25.63;14.63;;;;;;;11.38;100.00;93908.75;5065755;28;20128;-75
2023/10/05 05:02:00;;;;;;;21.45;12.85;;;;;;;11.35;100.00;93902.22;5065243;28;20056;-73
2023/10/05 05:04:28;;;;;;;26.75;13.57;;;;;;;11.13;100.00;93882.81;5067682;28;20048;-73
2023/10/05 05:06:56;;;;;;;28.65;14.43;;;;;;;11.27;100.00;93899.03;5066440;28;20137;-73
2023/10/05 05:09:29;;;;;;;22.73;14.13;;;;;;;11.35;100.00;93920.22;5073985;28;20059;-73
2023/10/05 05:11:57;;;;;;;21.88;14.27;;;;;;;11.35;100.00;93911.72;5081310;28;20143;-73
2023/10/05 05:14:24;;;;;;;21.83;13.90;;;;;;;11.37;100.00;93914.88;5076148;28;20076;-73
2023/10/05 05:16:52;;;;;;;24.90;14.50;;;;;;;11.33;100.00;93908.53;5071586;28;20064;-73
2023/10/05 05:19:19;;;;;;;27.33;14.13;;;;;;;11.34;100.00;93913.50;5071072;28;20134;-73
2023/10/05 05:21:45;;;;;;;21.88;13.77;;;;;;;11.39;100.00;93915.47;5075050;28;20044;-73
2023/10/05 05:24:13;;;;;;;25.35;14.10;;;;;;;11.41;100.00;93910.13;5072333;28;20052;-73
2023/10/05 05:26:42;;;;;;;22.10;13.60;;;;;;;11.41;100.00;93916.06;5071898;28;20173;-74
2023/10/05 05:29:09;;;;;;;22.73;13.65;;;;;;;11.43;100.00;93919.22;5070389;28;20049;-73
2023/10/05 05:31:36;;;;;;;19.88;13.13;;;;;;;11.46;100.00;93918.03;5072045;28;20075;-73
2023/10/05 05:34:06;;;;;;;25.27;13.25;;;;;;;11.43;100.00;93911.50;5067468;28;20060;-73
2023/10/05 05:36:36;;;;;;;22.25;13.05;;;;;;;11.49;100.00;93915.09;5076295;28;20044;-74
2023/10/05 05:39:04;;;;;;;22.10;13.35;;;;;;;11.55;100.00;93922.03;5082781;28;20171;-73
2023/10/05 05:41:30;;;;;;;23.13;13.10;;;;;;;11.65;100.00;93937.06;5072411;28;20055;-73
2023/10/05 05:43:59;;;;;;;20.42;13.35;;;;;;;11.56;100.00;93912.50;5070938;28;20044;-73
2023/10/05 05:46:26;;;;;;;19.48;13.38;;;;;;;11.73;100.00;93936.88;5067506;28;20059;-73
2023/10/05 05:48:53;;;;;;;21.23;13.10;;;;;;;11.80;100.00;93931.69;5073278;28;20051;-73
2023/10/05 05:51:23;;;;;;;24.08;13.13;;;;;;;11.93;100.00;93928.34;5063387;28;20451;-73
2023/10/05 05:53:52;;;;;;;22.83;13.75;;;;;;;12.02;100.00;93931.50;5071789;28;20040;-73
2023/10/05 05:56:19;;;;;;;20.45;13.18;;;;;;;12.15;100.00;93930.72;5064220;28;20052;-73
2023/10/05 05:58:47;;;;;;;19.88;13.10;;;;;;;12.29;100.00;93940.00;5075243;28;20086;-73
2023/10/05 06:01:16;;;;;;;29.00;15.10;;;;;;;12.40;100.00;93941.16;5070535;28;20518;-73
2023/10/05 06:03:44;;;;;;;32.35;19.00;;;;;;;12.54;100.00;93948.84;5083109;28;20067;-73
2023/10/05 06:06:11;;;;;;;30.20;15.75;;;;;;;12.66;100.00;93954.16;5072426;28;20923;-74
2023/10/05 06:08:40;;;;;;;26.58;15.32;;;;;;;12.78;100.00;93949.16;5075752;28;20055;-73
2023/10/05 06:11:08;;;;;;;27.25;15.40;;;;;;;12.92;100.00;93952.47;5080643;28;20437;-73
2023/10/05 06:13:37;;;;;;;24.75;14.43;;;;;;;13.00;100.00;93954.81;5070357;28;20044;-73
2023/10/05 06:16:06;;;;;;;31.85;14.15;;;;;;;12.94;100.00;93915.19;5068260;28;20510;-73
2023/10/05 06:18:34;;;;;;;31.35;14.40;;;;;;;13.26;100.00;93947.94;5067755;28;20150;-73
2023/10/05 06:21:01;;;;;;;22.15;13.20;;;;;;;13.40;100.00;93950.41;5065369;28;20139;-73
2023/10/05 06:23:32;;;;;;;32.85;13.80;;;;;;;13.45;100.00;93943.66;5073844;28;20040;-73
2023/10/05 06:25:59;;;;;;;26.90;13.75;;;;;;;13.67;100.00;93948.50;5066686;28;20048;-73
2023/10/05 06:28:26;;;;;;;20.52;12.25;;;;;;;13.87;100.00;93944.94;5067417;28;20056;-74
2023/10/05 06:30:53;;;;;;;19.10;10.75;;;;;;;13.99;100.00;93943.25;5068317;28;20412;-73
2023/10/05 06:33:19;;;;;;;20.77;11.10;;;;;;;14.18;100.00;93955.41;5083624;28;20047;-73
2023/10/05 06:35:47;;;;;;;;;;;;;;;14.37;100.00;93953.63;5074092;28;20048;-73
2023/10/05 06:38:16;;;;;;;20.20;11.52;;;;;;;14.43;100.00;93952.78;5081591;28;19927;-73
2023/10/05 06:40:42;;;;;;;21.05;11.63;;;;;;;14.61;100.00;93958.94;5084038;28;20164;-73
2023/10/05 06:43:10;;;;;;;19.58;11.32;;;;;;;14.74;100.00;93948.47;5077664;28;20045;-74
2023/10/05 06:45:36;;;;;;;18.92;10.50;;;;;;;14.95;100.00;93962.00;5068046;28;20052;-74
2023/10/05 06:48:04;;;;;;;16.00;9.65;;;;;;;15.07;100.00;93962.81;5086200;28;20059;-74
2023/10/05 06:50:31;;;;;;;15.07;9.32;;;;;;;15.20;100.00;93958.47;5080238;28;20483;-74
2023/10/05 06:53:00;;;;;;;22.55;11.43;;;;;;;15.31;100.00;93956.94;5071922;28;20425;-74
2023/10/05 06:55:28;;;;;;;21.02;10.25;;;;;;;15.41;100.00;93956.41;5066794;28;20052;-74
2023/10/05 06:57:55;;;;;;;15.85;8.55;;;;;;;15.59;100.00;93960.72;5064146;28;20397;-74
2023/10/05 07:00:22;;;;;;;13.27;8.23;;;;;;;15.63;100.00;93941.94;5071816;28;20120;-74
2023/10/05 07:02:50;;;;;;;13.75;7.68;;;;;;;15.77;100.00;93947.72;5077144;28;20048;-74
2023/10/05 07:05:18;;;;;;;14.05;7.93;;;;;;;15.85;100.00;93949.19;5085727;28;20067;-74
2023/10/05 07:07:45;;;;;;;12.48;7.65;;;;;;;16.11;100.00;93956.78;5066293;28;20049;-74
2023/10/05 07:10:15;;;;;;;18.88;7.30;;;;;;;16.26;100.00;93956.31;5070350;28;20606;-74
2023/10/05 07:12:46;;;;;;;15.82;7.57;;;;;;;16.37;98.50;93971.06;5068219;28;20044;-74
2023/10/05 07:15:14;;;;;;;13.70;7.82;;;;;;;16.27;98.41;93968.25;5069035;28;20044;-74
2023/10/05 07:17:41;;;;;;;12.55;7.25;;;;;;;16.35;98.37;93960.16;5068292;28;20145;-74
2023/10/05 07:20:11;;;;;;;20.58;10.68;;;;;;;16.56;96.64;93971.72;5068386;28;20511;-74
2023/10/05 07:22:39;;;;;;;19.88;9.63;;;;;;;16.53;96.00;93972.16;5068738;28;20067;-74
2023/10/05 07:25:06;;;;;;;13.95;7.22;;;;;;;16.47;95.35;93977.50;5067534;28;20044;-74
2023/10/05 07:27:34;;;;;;;13.55;6.85;;;;;;;16.55;94.34;93983.13;5071438;28;20052;-74
2023/10/05 07:30:03;;;;;;;12.18;7.00;;;;;;;16.71;95.50;93980.81;5063523;28;20057;-74
2023/10/05 07:32:31;;;;;;;13.23;7.13;;;;;;;16.89;94.71;93984.31;5071708;28;20053;-74
2023/10/05 07:34:57;;;;;;;11.68;6.75;;;;;;;16.94;91.89;93981.81;5066754;28;20049;-75
2023/10/05 07:37:26;;;;;;;11.48;6.10;;;;;;;17.11;91.73;93976.69;5060271;28;20049;-74
2023/10/05 07:39:52;;;;;;;13.23;6.30;;;;;;;17.31;92.07;93976.28;5062984;28;20041;-74
2023/10/05 07:42:20;;;;;;;17.33;7.90;;;;;;;17.53;92.43;93975.63;5074943;28;20381;-74
2023/10/05 07:44:48;;;;;;;17.25;7.70;;;;;;;17.81;91.38;93976.59;5072161;28;20056;-75
2023/10/05 07:47:15;;;;;;;15.32;6.25;;;;;;;18.01;87.59;93981.31;5066796;28;20048;-74
2023/10/05 07:49:42;;;;;;;12.43;5.60;;;;;;;18.30;88.50;93980.47;5067111;28;20489;-74
2023/10/05 07:52:11;;;;;;;13.57;6.20;;;;;;;18.53;85.55;93976.09;5065343;28;20420;-75
2023/10/05 07:54:38;;;;;;;13.43;5.57;;;;;;;18.70;82.55;93984.63;5075081;28;20190;-75
2023/10/05 07:57:07;;;;;;;9.02;5.20;;;;;;;18.80;80.79;93973.56;5070667;28;20048;-75
2023/10/05 07:59:34;;;;;;;11.13;5.07;;;;;;;18.95;83.01;93972.97;5068974;28;20504;-75
2023/10/05 08:02:03;;;;;;;9.80;4.55;;;;;;;19.07;81.49;93964.28;5072341;28;20640;-75
2023/10/05 08:04:30;;;;;;;9.90;4.70;;;;;;;19.12;80.84;93953.88;5071659;28;20056;-75
2023/10/05 08:06:57;;;;;;;10.38;4.47;;;;;;;19.28;79.84;93959.25;5071961;28;20055;-75
2023/10/05 08:09:26;;;;;;;12.73;4.72;;;;;;;19.45;79.60;93965.16;5071757;28;20419;-75
2023/10/05 08:11:56;;;;;;;9.55;4.75;;;;;;;19.47;77.89;93959.69;5071521;28;20419;-75
2023/10/05 08:14:24;;;;;;;9.25;4.70;;;;;;;19.60;77.33;93959.31;5076820;28;20048;-75
2023/10/05 08:16:51;;;;;;;12.02;4.80;;;;;;;19.76;78.13;93959.41;5071208;28;20603;-75
2023/10/05 08:19:20;;;;;;;9.55;4.60;;;;;;;19.99;77.18;93957.53;5071651;28;20049;-75
2023/10/05 08:21:47;;;;;;;8.40;4.90;;;;;;;20.09;75.27;93965.44;5072621;28;20055;-75
2023/10/05 08:24:17;;;;;;;11.50;4.47;;;;;;;20.24;74.68;93956.94;5073456;28;20051;-75
2023/10/05 08:26:44;;;;;;;10.73;5.07;;;;;;;20.16;74.17;93954.78;5088312;28;20141;-75
2023/10/05 08:29:11;;;;;;;19.80;6.15;;;;;;;20.13;74.11;93957.88;5088057;28;20473;-75
2023/10/05 08:31:38;;;;;;;11.02;5.13;;;;;;;20.18;75.11;93955.31;5075817;28;20052;-75
2023/10/05 08:34:08;;;;;;;10.68;5.18;;;;;;;20.12;74.69;93953.72;5070996;28;20049;-75
2023/10/05 08:36:37;;;;;;;9.75;4.50;;;;;;;20.33;74.48;93956.44;5070829;28;20412;-75
2023/10/05 08:39:04;;;;;;;10.80;5.00;;;;;;;20.20;73.82;93968.09;5072664;28;20040;-76
2023/10/05 08:41:35;;;;;;;11.45;5.38;;;;;;;20.49;74.17;93955.50;5070037;28;20488;-75
2023/10/05 08:44:10;;;;;;;12.23;5.65;;;;;;;20.26;72.53;93944.41;5074403;28;20055;-75
2023/10/05 08:46:42;;;;;;;10.65;5.25;;;;;;;20.38;72.72;93954.66;5070112;28;20045;-74
2023/10/05 08:49:10;;;;;;;9.82;5.72;;;;;;;20.63;72.12;93960.25;5072295;28;20045;-74
2023/10/05 08:51:40;;;;;;;12.80;5.55;;;;;;;20.68;72.07;93963.69;5084180;28;20163;-74
2023/10/05 08:54:09;;;;;;;13.73;5.15;;;;;;;20.60;70.91;93955.56;5072834;28;20086;-74
2023/10/05 08:56:40;;;;;;;9.27;4.85;;;;;;;20.33;73.49;93951.22;5076918;28;20059;-77
2023/10/05 08:59:13;;;;;;;8.63;4.55;;;;;;;20.27;72.05;93942.59;5070183;28;20044;-76
2023/10/05 09:01:42;;;;;;;9.25;4.70;;;;;;;20.47;72.71;93931.50;5070212;28;20145;-74
2023/10/05 09:04:24;;;;;;;9.38;4.25;;;;;;;20.66;72.18;93929.22;5069032;28;20133;-74
2023/10/05 09:06:55;;;;;;;7.35;4.28;;;;;;;20.68;71.87;93942.00;5072052;28;20440;-74
2023/10/05 09:09:35;;;;;;;10.15;4.50;;;;;;;20.93;70.58;93948.41;5070574;28;20608;-74
2023/10/05 09:12:19;;;;;;;9.48;5.32;;;;;;;21.17;71.16;93933.06;5072059;28;20056;-74
2023/10/05 09:14:47;;;;;;;7.68;4.20;;;;;;;21.18;69.94;93936.44;5072671;28;20048;-74
2023/10/05 09:17:15;;;;;;;11.30;4.72;;;;;;;21.58;70.57;93934.91;5069528;28;20082;-74
2023/10/05 09:19:44;;;;;;;7.40;4.15;;;;;;;21.89;67.01;93921.09;5075866;28;20362;-74
2023/10/05 09:22:14;;;;;;;10.57;4.78;;;;;;;22.23;68.66;93928.38;5070760;28;20563;-74
2023/10/05 09:24:43;;;;;;;10.77;5.13;;;;;;;22.40;66.98;93903.75;5069973;28;20048;-74
2023/10/05 09:27:17;;;;;;;7.80;4.28;;;;;;;22.70;64.17;93925.66;5070034;28;20167;-74
2023/10/05 09:29:45;;;;;;;8.07;5.00;;;;;;;22.92;65.30;93908.78;5069565;28;20053;-74
2023/10/05 09:32:30;;;;;;;10.40;5.35;;;;;;;23.04;63.44;93898.75;5069599;28;20055;-74
2023/10/05 09:35:00;;;;;;;8.75;4.57;;;;;;;23.31;60.66;93918.56;5067115;28;20147;-74
2023/10/05 09:37:29;;;;;;;10.05;4.45;;;;;;;22.82;62.08;93892.06;5072908;28;20117;-74
2023/10/05 09:40:00;;;;;;;8.45;4.13;;;;;;;22.88;61.05;93920.84;5071074;28;20040;-74
2023/10/05 09:42:28;;;;;;;9.70;4.85;;;;;;;22.94;63.15;93907.47;5071698;28;20055;-75
2023/10/05 09:44:57;;;;;;;9.02;4.90;;;;;;;23.23;63.22;93911.22;5068851;28;20123;-75
2023/10/05 09:47:26;;;;;;;8.88;4.50;;;;;;;23.52;62.79;93907.13;5069372;28;20519;-74
2023/10/05 09:50:00;;;;;;;8.00;4.50;;;;;;;23.79;61.60;93900.63;5071856;28;20439;-75
2023/10/05 09:52:34;;;;;;;7.82;4.35;;;;;;;23.92;61.05;93899.97;5068795;28;20052;-75
2023/10/05 09:55:03;;;;;;;11.18;4.22;;;;;;;24.23;58.82;93902.34;5074432;28;20067;-74
2023/10/05 09:57:40;;;;;;;9.07;4.85;;;;;;;24.43;59.42;93903.16;5076654;28;20044;-75
2023/10/05 10:00:11;;;;;;;10.20;5.35;;;;;;;24.57;57.74;93898.03;5074140;28;20075;-75
2023/10/05 10:02:41;;;;;;;7.38;3.75;;;;;;;24.55;56.19;93892.28;5078204;28;20052;-75
2023/10/05 10:05:26;;;;;;;6.88;3.88;;;;;;;24.51;55.71;93893.91;5073474;28;20130;-75
2023/10/05 10:07:56;;;;;;;9.82;4.63;;;;;;;24.77;57.47;93888.34;5068405;28;20049;-75
2023/10/05 10:10:25;;;;;;;9.45;4.78;;;;;;;24.96;56.81;93885.75;5071727;28;20081;-75
2023/10/05 10:12:53;;;;;;;8.18;3.90;;;;;;;25.02;54.82;93891.72;5081138;28;20178;-75
2023/10/05 10:15:28;;;;;;;9.25;5.05;;;;;;;24.99;53.11;93889.66;5083061;28;20054;-74
2023/10/05 10:18:09;;;;;;;11.15;5.10;;;;;;;24.95;54.72;93879.72;5065130;28;20048;-75
2023/10/05 10:20:36;;;;;;;9.18;4.70;;;;;;;25.09;53.59;93881.66;5072986;28;20045;-75
2023/10/05 10:23:14;;;;;;;13.05;4.55;;;;;;;25.22;55.77;93875.66;5070161;28;20045;-74
2023/10/05 10:25:42;;;;;;;17.60;5.25;;;;;;;25.33;54.30;93881.53;5068439;28;20133;-74
2023/10/05 10:28:16;;;;;;;9.70;4.60;;;;;;;25.53;54.83;93876.25;5069884;28;20060;-75
2023/10/05 10:30:47;;;;;;;22.50;17.63;;;;;;;25.61;54.31;93863.25;5070424;28;20423;-75
2023/10/05 10:33:30;;;;;;;10.65;7.78;;;;;;;25.79;50.97;93862.72;5068419;28;20043;-74
2023/10/05 10:35:58;;;;;;;10.77;5.07;;;;;;;25.69;51.88;93863.66;5071077;28;20045;-74
2023/10/05 10:38:27;;;;;;;9.00;4.82;;;;;;;25.60;51.09;93866.19;5069873;28;20130;-75
2023/10/05 10:41:11;;;;;;;13.07;5.25;;;;;;;25.40;50.81;93827.81;5071563;28;20504;-74
2023/10/05 10:43:40;;;;;;;10.15;5.05;;;;;;;25.47;50.96;93854.53;5071523;28;20453;-74
2023/10/05 10:46:13;;;;;;;9.32;4.75;;;;;;;25.48;51.77;93842.94;5069076;28;20043;-74
2023/10/05 10:48:53;;;;;;;8.60;4.32;;;;;;;25.12;52.25;93833.75;5068803;28;20048;-74
2023/10/05 10:51:21;;;;;;;9.98;4.97;;;;;;;25.26;51.03;93835.66;5068951;28;20048;-74
2023/10/05 10:53:56;;;;;;;10.80;4.82;;;;;;;25.24;50.91;93837.78;5069052;28;20063;-74
2023/10/05 10:56:27;;;;;;;10.18;4.43;;;;;;;25.16;52.38;93829.47;5067069;28;21077;-74
2023/10/05 10:59:09;;;;;;;6.65;4.20;;;;;;;25.29;53.79;93822.72;5069636;28;20048;-74
2023/10/05 11:01:43;;;;;;;10.95;4.78;;;;;;;25.53;52.28;93813.91;5070416;28;20048;-75
2023/10/05 11:04:25;;;;;;;6.97;4.03;;;;;;;25.78;51.48;93803.25;5076302;28;20052;-75
2023/10/05 11:06:58;;;;;;;7.05;4.22;;;;;;;25.86;50.75;93800.72;5067464;28;20190;-74
2023/10/05 11:09:35;;;;;;;10.40;4.30;;;;;;;25.99;52.02;93801.03;5067993;28;20044;-75
2023/10/05 11:12:11;;;;;;;8.10;4.28;;;;;;;25.99;49.01;93809.72;5072669;28;20188;-75
2023/10/05 11:14:43;;;;;;;9.23;4.70;;;;;;;25.79;49.96;93802.97;5071786;28;20057;-75
2023/10/05 11:17:28;;;;;;;7.25;4.45;;;;;;;25.70;50.57;93796.81;5065717;28;20053;-74
2023/10/05 11:19:55;;;;;;;9.60;4.70;;;;;;;25.91;50.25;93791.97;5066488;28;20149;-75
2023/10/05 11:22:29;;;;;;;9.75;4.40;;;;;;;25.86;49.19;93790.22;5072795;28;20123;-74
2023/10/05 11:27:55;;;;;;;8.75;4.30;;;;;;;25.59;49.57;93781.22;5065826;28;20048;-74
2023/10/05 11:30:24;;;;;;;8.13;3.78;;;;;;;25.78;49.38;93788.25;5080528;28;20089;-74
2023/10/05 11:32:56;;;;;;;11.13;3.72;;;;;;;25.76;49.60;93769.34;5072538;28;20775;-75
2023/10/05 11:35:30;;;;;;;7.65;3.80;;;;;;;25.99;47.52;93777.34;5069323;28;20059;-75